sensor_id;sensor_type;location;lat;lon;timestamp;P1;durP1;ratioP1;P2;durP2;ratioP2
20042;SDS011;10182;52.896;6.496;2023-11-19T00:00:02;56.77;;;34.83;;
20042;SDS011;10182;52.896;6.496;2023-11-19T00:05:11;67.67;;;37.90;;
20042;SDS011;10182;52.896;6.496;2023-11-19T00:10:13;63.80;;;37.37;;
20042;SDS011;10182;52.896;6.496;2023-11-19T00:15:20;66.20;;;36.57;;
20042;SDS011;10182;52.896;6.496;2023-11-19T00:20:24;56.57;;;32.27;;
20042;SDS011;10182;52.896;6.496;2023-11-19T00:25:25;55.40;;;30.87;;
20042;SDS011;10182;52.896;6.496;2023-11-19T00:30:29;48.27;;;30.00;;
20042;SDS011;10182;52.896;6.496;2023-11-19T00:35:31;57.10;;;29.83;;
20042;SDS011;10182;52.896;6.496;2023-11-19T00:40:33;60.10;;;27.33;;
20042;SDS011;10182;52.896;6.496;2023-11-19T00:45:36;50.47;;;23.60;;
20042;SDS011;10182;52.896;6.496;2023-11-19T00:50:38;43.27;;;19.90;;
20042;SDS011;10182;52.896;6.496;2023-11-19T00:55:44;46.87;;;16.37;;
20042;SDS011;10182;52.896;6.496;2023-11-19T01:00:47;36.93;;;15.67;;
20042;SDS011;10182;52.896;6.496;2023-11-19T01:05:49;47.47;;;13.80;;
20042;SDS011;10182;52.896;6.496;2023-11-19T01:10:52;41.03;;;12.80;;
20042;SDS011;10182;52.896;6.496;2023-11-19T01:15:55;35.83;;;11.90;;
20042;SDS011;10182;52.896;6.496;2023-11-19T01:20:57;36.70;;;11.83;;
20042;SDS011;10182;52.896;6.496;2023-11-19T01:25:59;44.23;;;11.43;;
20042;SDS011;10182;52.896;6.496;2023-11-19T01:31:02;42.07;;;10.43;;
20042;SDS011;10182;52.896;6.496;2023-11-19T01:36:04;36.10;;;9.70;;
20042;SDS011;10182;52.896;6.496;2023-11-19T01:41:08;40.17;;;10.23;;
20042;SDS011;10182;52.896;6.496;2023-11-19T01:46:11;40.43;;;9.70;;
20042;SDS011;10182;52.896;6.496;2023-11-19T01:51:13;46.13;;;9.20;;
20042;SDS011;10182;52.896;6.496;2023-11-19T01:56:16;39.87;;;9.60;;
20042;SDS011;10182;52.896;6.496;2023-11-19T02:01:20;42.93;;;9.53;;
20042;SDS011;10182;52.896;6.496;2023-11-19T02:06:22;38.33;;;10.17;;
20042;SDS011;10182;52.896;6.496;2023-11-19T02:11:24;40.57;;;10.37;;
20042;SDS011;10182;52.896;6.496;2023-11-19T02:16:30;43.70;;;9.43;;
20042;SDS011;10182;52.896;6.496;2023-11-19T02:21:32;42.90;;;9.63;;
20042;SDS011;10182;52.896;6.496;2023-11-19T02:26:36;36.30;;;8.63;;
20042;SDS011;10182;52.896;6.496;2023-11-19T02:31:42;39.33;;;8.97;;
20042;SDS011;10182;52.896;6.496;2023-11-19T02:36:43;34.67;;;8.07;;
20042;SDS011;10182;52.896;6.496;2023-11-19T02:41:47;44.93;;;8.30;;
20042;SDS011;10182;52.896;6.496;2023-11-19T02:46:52;32.37;;;8.30;;
20042;SDS011;10182;52.896;6.496;2023-11-19T02:51:54;40.13;;;8.93;;
20042;SDS011;10182;52.896;6.496;2023-11-19T02:56:55;32.30;;;8.17;;
20042;SDS011;10182;52.896;6.496;2023-11-19T03:02:01;35.97;;;8.00;;
20042;SDS011;10182;52.896;6.496;2023-11-19T03:07:03;36.10;;;8.53;;
20042;SDS011;10182;52.896;6.496;2023-11-19T03:12:05;35.20;;;7.43;;
20042;SDS011;10182;52.896;6.496;2023-11-19T03:17:09;32.63;;;7.83;;
20042;SDS011;10182;52.896;6.496;2023-11-19T03:22:10;45.63;;;9.27;;
20042;SDS011;10182;52.896;6.496;2023-11-19T03:27:12;36.03;;;8.50;;
20042;SDS011;10182;52.896;6.496;2023-11-19T03:32:16;43.50;;;9.17;;
20042;SDS011;10182;52.896;6.496;2023-11-19T03:37:17;39.87;;;8.20;;
20042;SDS011;10182;52.896;6.496;2023-11-19T03:42:19;50.40;;;8.87;;
20042;SDS011;10182;52.896;6.496;2023-11-19T03:47:23;41.93;;;8.67;;
20042;SDS011;10182;52.896;6.496;2023-11-19T03:52:25;38.73;;;9.67;;
20042;SDS011;10182;52.896;6.496;2023-11-19T03:57:27;40.73;;;9.47;;
20042;SDS011;10182;52.896;6.496;2023-11-19T04:02:30;47.63;;;9.40;;
20042;SDS011;10182;52.896;6.496;2023-11-19T04:07:32;39.80;;;10.60;;
20042;SDS011;10182;52.896;6.496;2023-11-19T04:12:34;41.97;;;9.00;;
20042;SDS011;10182;52.896;6.496;2023-11-19T04:17:37;43.93;;;9.67;;
20042;SDS011;10182;52.896;6.496;2023-11-19T04:22:39;44.93;;;8.27;;
20042;SDS011;10182;52.896;6.496;2023-11-19T04:27:41;48.83;;;9.00;;
20042;SDS011;10182;52.896;6.496;2023-11-19T04:32:44;37.40;;;8.53;;
20042;SDS011;10182;52.896;6.496;2023-11-19T04:37:46;45.50;;;9.63;;
20042;SDS011;10182;52.896;6.496;2023-11-19T04:42:48;44.07;;;9.53;;
20042;SDS011;10182;52.896;6.496;2023-11-19T04:47:51;48.23;;;10.50;;
20042;SDS011;10182;52.896;6.496;2023-11-19T04:52:53;40.80;;;9.50;;
20042;SDS011;10182;52.896;6.496;2023-11-19T04:57:56;34.43;;;8.83;;
20042;SDS011;10182;52.896;6.496;2023-11-19T05:02:59;52.77;;;10.40;;
20042;SDS011;10182;52.896;6.496;2023-11-19T05:08:00;42.17;;;9.90;;
20042;SDS011;10182;52.896;6.496;2023-11-19T05:13:02;41.60;;;9.43;;
20042;SDS011;10182;52.896;6.496;2023-11-19T05:18:06;46.20;;;10.87;;
20042;SDS011;10182;52.896;6.496;2023-11-19T05:23:08;49.90;;;10.37;;
20042;SDS011;10182;52.896;6.496;2023-11-19T05:28:10;42.80;;;8.93;;
20042;SDS011;10182;52.896;6.496;2023-11-19T05:33:16;43.93;;;10.27;;
20042;SDS011;10182;52.896;6.496;2023-11-19T05:38:17;47.47;;;10.30;;
20042;SDS011;10182;52.896;6.496;2023-11-19T05:43:19;46.37;;;9.50;;
20042;SDS011;10182;52.896;6.496;2023-11-19T05:48:22;49.57;;;9.70;;
20042;SDS011;10182;52.896;6.496;2023-11-19T05:53:25;44.13;;;9.33;;
20042;SDS011;10182;52.896;6.496;2023-11-19T05:58:26;46.30;;;9.33;;
20042;SDS011;10182;52.896;6.496;2023-11-19T06:03:30;46.53;;;10.10;;
20042;SDS011;10182;52.896;6.496;2023-11-19T06:08:32;34.53;;;8.40;;
20042;SDS011;10182;52.896;6.496;2023-11-19T06:13:34;38.50;;;8.83;;
20042;SDS011;10182;52.896;6.496;2023-11-19T06:18:38;48.40;;;9.17;;
20042;SDS011;10182;52.896;6.496;2023-11-19T06:23:41;35.13;;;8.47;;
20042;SDS011;10182;52.896;6.496;2023-11-19T06:28:43;37.93;;;9.03;;
20042;SDS011;10182;52.896;6.496;2023-11-19T06:33:47;40.93;;;9.30;;
20042;SDS011;10182;52.896;6.496;2023-11-19T06:38:49;42.23;;;8.63;;
20042;SDS011;10182;52.896;6.496;2023-11-19T06:43:50;42.90;;;9.27;;
20042;SDS011;10182;52.896;6.496;2023-11-19T06:48:54;56.97;;;10.37;;
20042;SDS011;10182;52.896;6.496;2023-11-19T06:53:55;34.03;;;8.97;;
20042;SDS011;10182;52.896;6.496;2023-11-19T06:58:57;33.63;;;9.33;;
20042;SDS011;10182;52.896;6.496;2023-11-19T07:04:00;51.33;;;10.50;;
20042;SDS011;10182;52.896;6.496;2023-11-19T07:09:08;39.53;;;9.37;;
20042;SDS011;10182;52.896;6.496;2023-11-19T07:14:10;38.53;;;9.40;;
20042;SDS011;10182;52.896;6.496;2023-11-19T07:19:14;35.27;;;7.87;;
20042;SDS011;10182;52.896;6.496;2023-11-19T07:24:15;37.77;;;9.67;;
20042;SDS011;10182;52.896;6.496;2023-11-19T07:29:17;38.90;;;8.80;;
20042;SDS011;10182;52.896;6.496;2023-11-19T07:34:20;34.60;;;8.37;;
20042;SDS011;10182;52.896;6.496;2023-11-19T07:39:22;41.03;;;9.83;;
20042;SDS011;10182;52.896;6.496;2023-11-19T07:44:24;36.70;;;8.73;;
20042;SDS011;10182;52.896;6.496;2023-11-19T07:49:27;44.73;;;9.13;;
20042;SDS011;10182;52.896;6.496;2023-11-19T07:54:29;41.23;;;9.80;;
20042;SDS011;10182;52.896;6.496;2023-11-19T07:59:30;40.53;;;9.00;;
20042;SDS011;10182;52.896;6.496;2023-11-19T08:04:33;34.33;;;9.40;;
20042;SDS011;10182;52.896;6.496;2023-11-19T08:09:35;43.03;;;10.23;;
20042;SDS011;10182;52.896;6.496;2023-11-19T08:14:37;39.40;;;8.80;;
20042;SDS011;10182;52.896;6.496;2023-11-19T08:19:40;47.33;;;9.13;;
20042;SDS011;10182;52.896;6.496;2023-11-19T08:24:42;41.20;;;9.03;;
20042;SDS011;10182;52.896;6.496;2023-11-19T08:29:44;47.27;;;9.83;;
20042;SDS011;10182;52.896;6.496;2023-11-19T08:34:47;36.67;;;8.33;;
20042;SDS011;10182;52.896;6.496;2023-11-19T08:39:49;41.37;;;7.97;;
20042;SDS011;10182;52.896;6.496;2023-11-19T08:44:51;36.27;;;9.13;;
20042;SDS011;10182;52.896;6.496;2023-11-19T08:49:56;36.33;;;8.83;;
20042;SDS011;10182;52.896;6.496;2023-11-19T08:54:58;42.57;;;9.03;;
20042;SDS011;10182;52.896;6.496;2023-11-19T08:59:59;35.43;;;8.63;;
20042;SDS011;10182;52.896;6.496;2023-11-19T09:05:09;51.67;;;9.27;;
20042;SDS011;10182;52.896;6.496;2023-11-19T09:10:11;33.23;;;8.20;;
20042;SDS011;10182;52.896;6.496;2023-11-19T09:15:13;37.87;;;8.13;;
20042;SDS011;10182;52.896;6.496;2023-11-19T09:20:16;43.20;;;9.30;;
20042;SDS011;10182;52.896;6.496;2023-11-19T09:25:17;40.03;;;8.30;;
20042;SDS011;10182;52.896;6.496;2023-11-19T09:30:19;43.00;;;8.03;;
20042;SDS011;10182;52.896;6.496;2023-11-19T09:35:22;33.17;;;8.40;;
20042;SDS011;10182;52.896;6.496;2023-11-19T09:40:24;40.73;;;8.87;;
20042;SDS011;10182;52.896;6.496;2023-11-19T09:45:27;31.17;;;7.43;;
20042;SDS011;10182;52.896;6.496;2023-11-19T09:50:30;35.30;;;8.67;;
20042;SDS011;10182;52.896;6.496;2023-11-19T09:55:32;39.03;;;8.70;;
20042;SDS011;10182;52.896;6.496;2023-11-19T10:00:34;36.70;;;7.50;;
20042;SDS011;10182;52.896;6.496;2023-11-19T10:05:37;37.97;;;6.67;;
20042;SDS011;10182;52.896;6.496;2023-11-19T10:10:40;39.57;;;9.60;;
20042;SDS011;10182;52.896;6.496;2023-11-19T10:15:41;38.30;;;9.00;;
20042;SDS011;10182;52.896;6.496;2023-11-19T10:20:46;36.70;;;7.83;;
20042;SDS011;10182;52.896;6.496;2023-11-19T10:25:48;36.90;;;7.73;;
20042;SDS011;10182;52.896;6.496;2023-11-19T10:30:55;39.30;;;8.03;;
20042;SDS011;10182;52.896;6.496;2023-11-19T10:35:59;41.80;;;8.63;;
20042;SDS011;10182;52.896;6.496;2023-11-19T10:41:00;35.50;;;8.63;;
20042;SDS011;10182;52.896;6.496;2023-11-19T10:46:09;41.90;;;8.23;;
20042;SDS011;10182;52.896;6.496;2023-11-19T10:51:13;38.53;;;8.00;;
20042;SDS011;10182;52.896;6.496;2023-11-19T10:56:23;27.57;;;7.07;;
20042;SDS011;10182;52.896;6.496;2023-11-19T11:01:32;43.43;;;8.60;;
20042;SDS011;10182;52.896;6.496;2023-11-19T11:06:42;37.17;;;7.97;;
20042;SDS011;10182;52.896;6.496;2023-11-19T11:11:44;35.10;;;8.20;;
20042;SDS011;10182;52.896;6.496;2023-11-19T11:16:48;38.70;;;7.87;;
20042;SDS011;10182;52.896;6.496;2023-11-19T11:21:52;35.07;;;8.73;;
20042;SDS011;10182;52.896;6.496;2023-11-19T11:27:02;40.60;;;9.33;;
20042;SDS011;10182;52.896;6.496;2023-11-19T11:32:26;40.93;;;9.70;;
20042;SDS011;10182;52.896;6.496;2023-11-19T11:37:36;39.70;;;10.73;;
20042;SDS011;10182;52.896;6.496;2023-11-19T11:42:45;31.13;;;8.83;;
20042;SDS011;10182;52.896;6.496;2023-11-19T11:53:18;39.43;;;10.03;;
20042;SDS011;10182;52.896;6.496;2023-11-19T11:58:25;44.53;;;9.87;;
20042;SDS011;10182;52.896;6.496;2023-11-19T12:03:28;42.80;;;10.40;;
20042;SDS011;10182;52.896;6.496;2023-11-19T12:08:33;40.23;;;9.83;;
20042;SDS011;10182;52.896;6.496;2023-11-19T12:13:42;41.93;;;10.17;;
20042;SDS011;10182;52.896;6.496;2023-11-19T12:18:49;32.23;;;8.30;;
20042;SDS011;10182;52.896;6.496;2023-11-19T12:23:52;46.03;;;9.20;;
20042;SDS011;10182;52.896;6.496;2023-11-19T12:28:58;35.93;;;8.63;;
20042;SDS011;10182;52.896;6.496;2023-11-19T12:34:00;33.27;;;8.43;;
20042;SDS011;10182;52.896;6.496;2023-11-19T12:39:03;26.23;;;7.70;;
20042;SDS011;10182;52.896;6.496;2023-11-19T12:44:09;39.20;;;9.40;;
20042;SDS011;10182;52.896;6.496;2023-11-19T12:49:12;36.93;;;8.57;;
20042;SDS011;10182;52.896;6.496;2023-11-19T12:54:15;46.80;;;8.87;;
20042;SDS011;10182;52.896;6.496;2023-11-19T12:59:18;35.60;;;8.40;;
20042;SDS011;10182;52.896;6.496;2023-11-19T13:04:20;44.37;;;10.27;;
20042;SDS011;10182;52.896;6.496;2023-11-19T13:09:23;44.53;;;9.53;;
20042;SDS011;10182;52.896;6.496;2023-11-19T13:14:35;38.53;;;8.03;;
20042;SDS011;10182;52.896;6.496;2023-11-19T13:19:38;40.53;;;8.50;;
20042;SDS011;10182;52.896;6.496;2023-11-19T13:24:41;31.37;;;7.50;;
20042;SDS011;10182;52.896;6.496;2023-11-19T13:29:43;35.37;;;8.00;;
20042;SDS011;10182;52.896;6.496;2023-11-19T13:34:44;37.63;;;7.43;;
20042;SDS011;10182;52.896;6.496;2023-11-19T13:39:47;39.10;;;8.83;;
20042;SDS011;10182;52.896;6.496;2023-11-19T13:44:49;36.23;;;7.77;;
20042;SDS011;10182;52.896;6.496;2023-11-19T13:49:51;36.53;;;8.07;;
20042;SDS011;10182;52.896;6.496;2023-11-19T13:54:54;31.63;;;7.07;;
20042;SDS011;10182;52.896;6.496;2023-11-19T13:59:55;31.70;;;7.57;;
20042;SDS011;10182;52.896;6.496;2023-11-19T14:04:57;40.33;;;9.17;;
20042;SDS011;10182;52.896;6.496;2023-11-19T14:10:00;28.17;;;7.40;;
20042;SDS011;10182;52.896;6.496;2023-11-19T14:15:03;36.37;;;7.93;;
20042;SDS011;10182;52.896;6.496;2023-11-19T14:20:06;28.90;;;7.13;;
20042;SDS011;10182;52.896;6.496;2023-11-19T14:25:14;38.37;;;7.70;;
20042;SDS011;10182;52.896;6.496;2023-11-19T14:30:17;29.87;;;7.63;;
20042;SDS011;10182;52.896;6.496;2023-11-19T14:35:18;36.50;;;9.10;;
20042;SDS011;10182;52.896;6.496;2023-11-19T14:40:21;33.63;;;7.70;;
20042;SDS011;10182;52.896;6.496;2023-11-19T14:45:23;27.20;;;6.73;;
20042;SDS011;10182;52.896;6.496;2023-11-19T14:50:24;39.50;;;6.67;;
20042;SDS011;10182;52.896;6.496;2023-11-19T14:55:28;32.77;;;6.93;;
20042;SDS011;10182;52.896;6.496;2023-11-19T15:00:29;31.03;;;7.20;;
20042;SDS011;10182;52.896;6.496;2023-11-19T15:05:31;23.47;;;8.80;;
20042;SDS011;10182;52.896;6.496;2023-11-19T15:10:35;27.53;;;6.90;;
20042;SDS011;10182;52.896;6.496;2023-11-19T15:15:37;30.87;;;7.00;;
20042;SDS011;10182;52.896;6.496;2023-11-19T15:20:39;35.07;;;7.87;;
20042;SDS011;10182;52.896;6.496;2023-11-19T15:25:42;29.43;;;6.23;;
20042;SDS011;10182;52.896;6.496;2023-11-19T15:30:44;37.43;;;7.63;;
20042;SDS011;10182;52.896;6.496;2023-11-19T15:35:46;24.87;;;6.10;;
20042;SDS011;10182;52.896;6.496;2023-11-19T15:40:49;35.47;;;7.83;;
20042;SDS011;10182;52.896;6.496;2023-11-19T15:45:51;36.70;;;7.13;;
20042;SDS011;10182;52.896;6.496;2023-11-19T15:50:53;31.90;;;6.97;;
20042;SDS011;10182;52.896;6.496;2023-11-19T15:55:56;33.87;;;7.43;;
20042;SDS011;10182;52.896;6.496;2023-11-19T16:00:58;30.80;;;7.30;;
20042;SDS011;10182;52.896;6.496;2023-11-19T16:06:01;37.67;;;7.83;;
20042;SDS011;10182;52.896;6.496;2023-11-19T16:11:05;32.43;;;7.23;;
20042;SDS011;10182;52.896;6.496;2023-11-19T16:16:08;25.60;;;7.73;;
20042;SDS011;10182;52.896;6.496;2023-11-19T16:21:10;35.07;;;7.27;;
20042;SDS011;10182;52.896;6.496;2023-11-19T16:26:13;30.60;;;7.10;;
20042;SDS011;10182;52.896;6.496;2023-11-19T16:31:15;31.57;;;7.60;;
20042;SDS011;10182;52.896;6.496;2023-11-19T16:36:17;41.97;;;7.40;;
20042;SDS011;10182;52.896;6.496;2023-11-19T16:41:20;33.83;;;8.93;;
20042;SDS011;10182;52.896;6.496;2023-11-19T16:46:23;35.50;;;9.47;;
20042;SDS011;10182;52.896;6.496;2023-11-19T16:51:24;40.30;;;8.57;;
20042;SDS011;10182;52.896;6.496;2023-11-19T16:56:27;34.27;;;8.53;;
20042;SDS011;10182;52.896;6.496;2023-11-19T17:01:32;43.17;;;8.27;;
20042;SDS011;10182;52.896;6.496;2023-11-19T17:06:37;37.20;;;9.00;;
20042;SDS011;10182;52.896;6.496;2023-11-19T17:11:40;35.20;;;8.90;;
20042;SDS011;10182;52.896;6.496;2023-11-19T17:16:43;36.90;;;7.80;;
20042;SDS011;10182;52.896;6.496;2023-11-19T17:21:45;41.13;;;9.00;;
20042;SDS011;10182;52.896;6.496;2023-11-19T17:26:48;35.83;;;8.63;;
20042;SDS011;10182;52.896;6.496;2023-11-19T17:31:50;36.90;;;7.03;;
20042;SDS011;10182;52.896;6.496;2023-11-19T17:36:52;39.43;;;7.67;;
20042;SDS011;10182;52.896;6.496;2023-11-19T17:41:55;33.50;;;8.73;;
20042;SDS011;10182;52.896;6.496;2023-11-19T17:46:56;29.47;;;7.63;;
20042;SDS011;10182;52.896;6.496;2023-11-19T17:51:58;29.93;;;7.40;;
20042;SDS011;10182;52.896;6.496;2023-11-19T17:57:01;40.43;;;8.20;;
20042;SDS011;10182;52.896;6.496;2023-11-19T18:02:03;39.87;;;8.77;;
20042;SDS011;10182;52.896;6.496;2023-11-19T18:07:05;34.67;;;7.93;;
20042;SDS011;10182;52.896;6.496;2023-11-19T18:12:08;43.40;;;8.63;;
20042;SDS011;10182;52.896;6.496;2023-11-19T18:17:11;44.07;;;9.60;;
20042;SDS011;10182;52.896;6.496;2023-11-19T18:22:15;33.70;;;7.40;;
20042;SDS011;10182;52.896;6.496;2023-11-19T18:27:18;44.30;;;9.27;;
20042;SDS011;10182;52.896;6.496;2023-11-19T18:32:19;34.33;;;8.03;;
20042;SDS011;10182;52.896;6.496;2023-11-19T18:37:21;34.97;;;8.10;;
20042;SDS011;10182;52.896;6.496;2023-11-19T18:42:24;27.27;;;7.17;;
20042;SDS011;10182;52.896;6.496;2023-11-19T18:47:26;41.20;;;8.03;;
20042;SDS011;10182;52.896;6.496;2023-11-19T18:52:27;30.77;;;9.27;;
20042;SDS011;10182;52.896;6.496;2023-11-19T18:57:31;30.07;;;7.20;;
20042;SDS011;10182;52.896;6.496;2023-11-19T19:02:33;26.33;;;8.40;;
20042;SDS011;10182;52.896;6.496;2023-11-19T19:07:34;17.13;;;7.03;;
20042;SDS011;10182;52.896;6.496;2023-11-19T19:12:38;19.53;;;7.27;;
20042;SDS011;10182;52.896;6.496;2023-11-19T19:17:39;24.83;;;7.33;;
20042;SDS011;10182;52.896;6.496;2023-11-19T19:22:41;22.10;;;8.73;;
20042;SDS011;10182;52.896;6.496;2023-11-19T19:27:44;21.77;;;7.93;;
20042;SDS011;10182;52.896;6.496;2023-11-19T19:32:46;15.80;;;5.73;;
20042;SDS011;10182;52.896;6.496;2023-11-19T19:37:48;14.33;;;5.27;;
20042;SDS011;10182;52.896;6.496;2023-11-19T19:42:51;18.97;;;7.10;;
20042;SDS011;10182;52.896;6.496;2023-11-19T19:47:53;12.10;;;6.00;;
20042;SDS011;10182;52.896;6.496;2023-11-19T19:52:55;10.40;;;4.70;;
20042;SDS011;10182;52.896;6.496;2023-11-19T19:57:58;13.87;;;4.87;;
20042;SDS011;10182;52.896;6.496;2023-11-19T20:03:00;10.60;;;5.13;;
20042;SDS011;10182;52.896;6.496;2023-11-19T20:08:02;17.13;;;6.60;;
20042;SDS011;10182;52.896;6.496;2023-11-19T20:13:06;15.27;;;6.80;;
20042;SDS011;10182;52.896;6.496;2023-11-19T20:18:10;18.40;;;6.17;;
20042;SDS011;10182;52.896;6.496;2023-11-19T20:23:14;9.10;;;5.27;;
20042;SDS011;10182;52.896;6.496;2023-11-19T20:28:17;16.80;;;5.17;;
20042;SDS011;10182;52.896;6.496;2023-11-19T20:33:18;9.17;;;4.70;;
20042;SDS011;10182;52.896;6.496;2023-11-19T20:38:20;9.33;;;4.23;;
20042;SDS011;10182;52.896;6.496;2023-11-19T20:43:23;14.87;;;4.63;;
20042;SDS011;10182;52.896;6.496;2023-11-19T20:48:25;13.43;;;4.47;;
20042;SDS011;10182;52.896;6.496;2023-11-19T20:53:27;23.23;;;5.30;;
20042;SDS011;10182;52.896;6.496;2023-11-19T20:58:30;17.67;;;7.20;;
20042;SDS011;10182;52.896;6.496;2023-11-19T21:03:34;32.60;;;8.03;;
20042;SDS011;10182;52.896;6.496;2023-11-19T21:08:37;38.70;;;8.20;;
20042;SDS011;10182;52.896;6.496;2023-11-19T21:13:41;31.07;;;7.67;;
20042;SDS011;10182;52.896;6.496;2023-11-19T21:18:44;27.77;;;7.53;;
20042;SDS011;10182;52.896;6.496;2023-11-19T21:23:45;36.43;;;8.37;;
20042;SDS011;10182;52.896;6.496;2023-11-19T21:28:48;28.23;;;6.63;;
20042;SDS011;10182;52.896;6.496;2023-11-19T21:33:50;36.97;;;8.43;;
20042;SDS011;10182;52.896;6.496;2023-11-19T21:38:52;36.20;;;8.13;;
20042;SDS011;10182;52.896;6.496;2023-11-19T21:43:56;31.93;;;6.73;;
20042;SDS011;10182;52.896;6.496;2023-11-19T21:48:57;32.03;;;6.53;;
20042;SDS011;10182;52.896;6.496;2023-11-19T21:53:59;25.73;;;6.33;;
20042;SDS011;10182;52.896;6.496;2023-11-19T21:59:03;29.63;;;6.20;;
20042;SDS011;10182;52.896;6.496;2023-11-19T22:04:05;20.87;;;4.93;;
20042;SDS011;10182;52.896;6.496;2023-11-19T22:09:08;19.80;;;5.17;;
20042;SDS011;10182;52.896;6.496;2023-11-19T22:14:13;24.60;;;5.37;;
20042;SDS011;10182;52.896;6.496;2023-11-19T22:19:15;18.50;;;5.17;;
20042;SDS011;10182;52.896;6.496;2023-11-19T22:24:17;27.63;;;5.00;;
20042;SDS011;10182;52.896;6.496;2023-11-19T22:29:20;23.97;;;4.77;;
20042;SDS011;10182;52.896;6.496;2023-11-19T22:34:21;21.93;;;4.80;;
20042;SDS011;10182;52.896;6.496;2023-11-19T22:39:23;18.17;;;4.63;;
20042;SDS011;10182;52.896;6.496;2023-11-19T22:44:26;18.70;;;4.47;;
20042;SDS011;10182;52.896;6.496;2023-11-19T22:49:28;18.37;;;4.90;;
20042;SDS011;10182;52.896;6.496;2023-11-19T22:54:30;16.30;;;4.70;;
20042;SDS011;10182;52.896;6.496;2023-11-19T22:59:33;29.40;;;5.73;;
20042;SDS011;10182;52.896;6.496;2023-11-19T23:04:34;27.27;;;5.00;;
20042;SDS011;10182;52.896;6.496;2023-11-19T23:09:36;16.60;;;5.10;;
20042;SDS011;10182;52.896;6.496;2023-11-19T23:14:41;16.00;;;4.20;;
20042;SDS011;10182;52.896;6.496;2023-11-19T23:19:43;20.90;;;4.03;;
20042;SDS011;10182;52.896;6.496;2023-11-19T23:24:44;14.83;;;3.77;;
20042;SDS011;10182;52.896;6.496;2023-11-19T23:29:47;11.03;;;2.90;;
20042;SDS011;10182;52.896;6.496;2023-11-19T23:34:49;10.27;;;3.10;;
20042;SDS011;10182;52.896;6.496;2023-11-19T23:39:51;13.10;;;3.47;;
20042;SDS011;10182;52.896;6.496;2023-11-19T23:44:54;9.63;;;3.33;;
20042;SDS011;10182;52.896;6.496;2023-11-19T23:49:56;11.00;;;3.00;;
20042;SDS011;10182;52.896;6.496;2023-11-19T23:54:58;12.23;;;3.77;;
